sensor_id;sensor_type;location;lat;lon;timestamp;pressure;altitude;pressure_sealevel;temperature;humidity
36834;BME280;48003;52.084;5.224;2024-01-30T00:00:57;102644.0;;;10.73;86.44
36834;BME280;48003;52.084;5.224;2024-01-30T00:02:33;102646.0;;;10.69;86.58
36834;BME280;48003;52.084;5.224;2024-01-30T00:04:09;102648.0;;;10.68;87.14
36834;BME280;48003;52.084;5.224;2024-01-30T00:05:45;102642.0;;;10.84;86.15
36834;BME280;48003;52.084;5.224;2024-01-30T00:08:58;102642.0;;;10.88;86.18
36834;BME280;48003;52.084;5.224;2024-01-30T00:10:34;102643.0;;;10.66;86.63
36834;BME280;48003;52.084;5.224;2024-01-30T00:12:10;102641.00000000001;;;10.87;86.74
36834;BME280;48003;52.084;5.224;2024-01-30T00:15:22;102640.00000000001;;;11.02;85.69
36834;BME280;48003;52.084;5.224;2024-01-30T00:16:58;102642.0;;;11.05;85.19
36834;BME280;48003;52.084;5.224;2024-01-30T00:18:35;102642.0;;;11.0;84.94
36834;BME280;48003;52.084;5.224;2024-01-30T00:21:47;102642.0;;;10.6;87.1
36834;BME280;48003;52.084;5.224;2024-01-30T00:23:24;102640.00000000001;;;10.55;87.49
36834;BME280;48003;52.084;5.224;2024-01-30T00:25:00;102634.99999999999;;;10.58;87.62
36834;BME280;48003;52.084;5.224;2024-01-30T00:26:36;102640.00000000001;;;10.42;88.32
36834;BME280;48003;52.084;5.224;2024-01-30T00:29:48;102641.00000000001;;;10.47;88.87
36834;BME280;48003;52.084;5.224;2024-01-30T00:31:24;102639.00000000001;;;11.05;85.95
36834;BME280;48003;52.084;5.224;2024-01-30T00:33:00;102636.99999999999;;;10.72;86.93
36834;BME280;48003;52.084;5.224;2024-01-30T00:36:13;102634.99999999999;;;10.54;87.75
36834;BME280;48003;52.084;5.224;2024-01-30T00:37:49;102631.0;;;10.49;88.6
36834;BME280;48003;52.084;5.224;2024-01-30T00:39:25;102627.0;;;10.33;89.29
36834;BME280;48003;52.084;5.224;2024-01-30T00:42:40;102629.0;;;10.74;87.02
36834;BME280;48003;52.084;5.224;2024-01-30T00:44:16;102628.0;;;10.46;88.31
36834;BME280;48003;52.084;5.224;2024-01-30T00:45:52;102633.99999999999;;;10.57;88.21
36834;BME280;48003;52.084;5.224;2024-01-30T00:49:05;102630.0;;;10.5;88.68
36834;BME280;48003;52.084;5.224;2024-01-30T00:50:41;102632.0;;;10.65;87.6
36834;BME280;48003;52.084;5.224;2024-01-30T00:52:17;102633.99999999999;;;10.59;87.62
36834;BME280;48003;52.084;5.224;2024-01-30T00:53:53;102629.0;;;10.49;88.68
36834;BME280;48003;52.084;5.224;2024-01-30T00:57:05;102627.0;;;10.95;86.55
36834;BME280;48003;52.084;5.224;2024-01-30T00:58:41;102627.0;;;11.08;84.63
36834;BME280;48003;52.084;5.224;2024-01-30T01:00:18;102628.0;;;10.54;87.09
36834;BME280;48003;52.084;5.224;2024-01-30T01:03:33;102629.0;;;10.6;86.92
36834;BME280;48003;52.084;5.224;2024-01-30T01:05:09;102636.99999999999;;;10.65;87.06
36834;BME280;48003;52.084;5.224;2024-01-30T01:06:45;102630.0;;;10.9;86.1
36834;BME280;48003;52.084;5.224;2024-01-30T01:09:57;102629.0;;;10.46;87.34
36834;BME280;48003;52.084;5.224;2024-01-30T01:11:33;102628.0;;;10.66;86.75
36834;BME280;48003;52.084;5.224;2024-01-30T01:13:09;102620.0;;;10.61;86.14
36834;BME280;48003;52.084;5.224;2024-01-30T01:14:45;102615.00000000001;;;10.33;87.78
36834;BME280;48003;52.084;5.224;2024-01-30T01:17:58;102604.0;;;10.03;89.51
36834;BME280;48003;52.084;5.224;2024-01-30T01:19:34;102598.0;;;10.06;90.0
36834;BME280;48003;52.084;5.224;2024-01-30T01:21:10;102598.0;;;10.26;89.35
36834;BME280;48003;52.084;5.224;2024-01-30T01:24:22;102608.99999999999;;;10.39;88.44
36834;BME280;48003;52.084;5.224;2024-01-30T01:26:01;102606.0;;;10.17;89.27
36834;BME280;48003;52.084;5.224;2024-01-30T01:27:37;102605.0;;;10.01;90.24
36834;BME280;48003;52.084;5.224;2024-01-30T01:30:50;102605.0;;;10.07;89.72
36834;BME280;48003;52.084;5.224;2024-01-30T01:32:26;102602.0;;;10.16;89.39
36834;BME280;48003;52.084;5.224;2024-01-30T01:34:02;102602.0;;;10.23;89.21
36834;BME280;48003;52.084;5.224;2024-01-30T01:35:38;102607.0;;;10.17;89.11
36834;BME280;48003;52.084;5.224;2024-01-30T01:38:50;102602.0;;;10.37;87.76
36834;BME280;48003;52.084;5.224;2024-01-30T01:40:27;102604.0;;;10.43;88.42
36834;BME280;48003;52.084;5.224;2024-01-30T01:42:04;102602.0;;;10.23;88.23
36834;BME280;48003;52.084;5.224;2024-01-30T01:45:16;102598.0;;;10.27;88.21
36834;BME280;48003;52.084;5.224;2024-01-30T01:46:52;102599.0;;;10.26;88.05
36834;BME280;48003;52.084;5.224;2024-01-30T01:48:29;102603.0;;;10.45;87.2
36834;BME280;48003;52.084;5.224;2024-01-30T01:51:42;102604.0;;;10.02;89.05
36834;BME280;48003;52.084;5.224;2024-01-30T01:53:18;102601.0;;;10.24;88.18
36834;BME280;48003;52.084;5.224;2024-01-30T01:54:54;102597.0;;;10.24;88.41
36834;BME280;48003;52.084;5.224;2024-01-30T01:58:09;102598.0;;;10.08;88.75
36834;BME280;48003;52.084;5.224;2024-01-30T01:59:46;102593.0;;;10.59;86.92
36834;BME280;48003;52.084;5.224;2024-01-30T02:01:24;102593.0;;;10.81;85.47
36834;BME280;48003;52.084;5.224;2024-01-30T02:03:02;102592.0;;;10.41;86.51
36834;BME280;48003;52.084;5.224;2024-01-30T02:06:17;102592.0;;;10.49;86.22
36834;BME280;48003;52.084;5.224;2024-01-30T02:07:54;102594.0;;;10.89;84.24
36834;BME280;48003;52.084;5.224;2024-01-30T02:09:31;102592.0;;;10.4;86.21
36834;BME280;48003;52.084;5.224;2024-01-30T02:12:43;102590.00000000001;;;10.3;86.84
36834;BME280;48003;52.084;5.224;2024-01-30T02:14:19;102589.00000000001;;;10.44;86.54
36834;BME280;48003;52.084;5.224;2024-01-30T02:15:55;102586.99999999999;;;10.36;86.57
36834;BME280;48003;52.084;5.224;2024-01-30T02:17:31;102593.0;;;10.72;85.45
36834;BME280;48003;52.084;5.224;2024-01-30T02:20:43;102594.0;;;10.39;85.89
36834;BME280;48003;52.084;5.224;2024-01-30T02:22:20;102602.0;;;10.74;85.18
36834;BME280;48003;52.084;5.224;2024-01-30T02:23:57;102606.0;;;10.91;84.0
36834;BME280;48003;52.084;5.224;2024-01-30T02:27:15;102600.0;;;10.96;83.63
36834;BME280;48003;52.084;5.224;2024-01-30T02:28:51;102599.0;;;10.69;84.48
36834;BME280;48003;52.084;5.224;2024-01-30T02:30:27;102597.0;;;10.3;85.92
36834;BME280;48003;52.084;5.224;2024-01-30T02:33:40;102597.0;;;10.64;85.14
36834;BME280;48003;52.084;5.224;2024-01-30T02:35:16;102598.0;;;10.84;84.0
36834;BME280;48003;52.084;5.224;2024-01-30T02:36:52;102589.00000000001;;;11.06;83.03
36834;BME280;48003;52.084;5.224;2024-01-30T02:38:28;102583.99999999999;;;11.15;82.32
36834;BME280;48003;52.084;5.224;2024-01-30T02:41:43;102575.0;;;11.22;81.83
36834;BME280;48003;52.084;5.224;2024-01-30T02:43:19;102567.0;;;11.22;81.55
36834;BME280;48003;52.084;5.224;2024-01-30T02:44:55;102574.0;;;11.23;81.3
36834;BME280;48003;52.084;5.224;2024-01-30T02:48:07;102575.0;;;11.07;81.81
36834;BME280;48003;52.084;5.224;2024-01-30T02:49:43;102570.0;;;11.16;81.84
36834;BME280;48003;52.084;5.224;2024-01-30T02:51:20;102568.0;;;11.15;81.56
36834;BME280;48003;52.084;5.224;2024-01-30T02:54:35;102572.0;;;11.0;81.67
36834;BME280;48003;52.084;5.224;2024-01-30T02:56:11;102569.0;;;11.24;81.3
36834;BME280;48003;52.084;5.224;2024-01-30T02:57:47;102573.0;;;11.33;80.69
36834;BME280;48003;52.084;5.224;2024-01-30T02:59:23;102571.0;;;11.06;81.55
36834;BME280;48003;52.084;5.224;2024-01-30T03:02:36;102574.0;;;10.82;82.59
36834;BME280;48003;52.084;5.224;2024-01-30T03:04:12;102572.0;;;10.88;82.32
36834;BME280;48003;52.084;5.224;2024-01-30T03:05:49;102567.0;;;10.74;83.58
36834;BME280;48003;52.084;5.224;2024-01-30T03:09:01;102564.00000000001;;;10.97;82.42
36834;BME280;48003;52.084;5.224;2024-01-30T03:10:37;102558.99999999999;;;11.17;81.56
36834;BME280;48003;52.084;5.224;2024-01-30T03:12:13;102555.0;;;10.79;82.85
36834;BME280;48003;52.084;5.224;2024-01-30T03:15:25;102555.0;;;10.82;82.6
36834;BME280;48003;52.084;5.224;2024-01-30T03:17:02;102557.0;;;10.98;82.36
36834;BME280;48003;52.084;5.224;2024-01-30T03:18:38;102555.0;;;10.85;83.17
36834;BME280;48003;52.084;5.224;2024-01-30T03:20:14;102549.0;;;11.16;81.55
36834;BME280;48003;52.084;5.224;2024-01-30T03:23:26;102558.0;;;11.02;82.04
36834;BME280;48003;52.084;5.224;2024-01-30T03:25:03;102556.0;;;10.79;83.13
36834;BME280;48003;52.084;5.224;2024-01-30T03:26:39;102556.0;;;10.57;84.0
36834;BME280;48003;52.084;5.224;2024-01-30T03:29:51;102555.0;;;10.92;83.2
36834;BME280;48003;52.084;5.224;2024-01-30T03:31:27;102544.0;;;11.1;81.36
36834;BME280;48003;52.084;5.224;2024-01-30T03:33:04;102543.0;;;10.88;82.61
36834;BME280;48003;52.084;5.224;2024-01-30T03:36:16;102540.00000000001;;;11.1;81.94
36834;BME280;48003;52.084;5.224;2024-01-30T03:37:52;102540.00000000001;;;10.69;83.54
36834;BME280;48003;52.084;5.224;2024-01-30T03:39:28;102533.99999999999;;;10.76;83.41
36834;BME280;48003;52.084;5.224;2024-01-30T03:42:43;102529.0;;;10.73;83.28
36834;BME280;48003;52.084;5.224;2024-01-30T03:44:19;102523.0;;;10.84;82.84
36834;BME280;48003;52.084;5.224;2024-01-30T03:45:55;102529.0;;;10.74;83.54
36834;BME280;48003;52.084;5.224;2024-01-30T03:47:31;102520.0;;;10.5;84.27
36834;BME280;48003;52.084;5.224;2024-01-30T03:50:46;102531.0;;;10.67;84.04
36834;BME280;48003;52.084;5.224;2024-01-30T03:52:22;102532.0;;;10.67;84.24
36834;BME280;48003;52.084;5.224;2024-01-30T03:53:58;102529.0;;;10.51;84.96
36834;BME280;48003;52.084;5.224;2024-01-30T03:57:11;102533.0;;;10.81;83.51
36834;BME280;48003;52.084;5.224;2024-01-30T03:58:46;102536.99999999999;;;10.13;86.48
36834;BME280;48003;52.084;5.224;2024-01-30T04:00:22;102533.0;;;10.79;83.93
36834;BME280;48003;52.084;5.224;2024-01-30T04:03:36;102533.99999999999;;;10.89;83.41
36834;BME280;48003;52.084;5.224;2024-01-30T04:05:12;102538.00000000001;;;10.19;85.89
36834;BME280;48003;52.084;5.224;2024-01-30T04:06:48;102542.0;;;10.01;86.86
36834;BME280;48003;52.084;5.224;2024-01-30T04:08:24;102545.0;;;10.46;85.4
36834;BME280;48003;52.084;5.224;2024-01-30T04:11:36;102543.0;;;10.41;85.77
36834;BME280;48003;52.084;5.224;2024-01-30T04:13:13;102548.0;;;10.25;86.13
36834;BME280;48003;52.084;5.224;2024-01-30T04:14:48;102543.0;;;10.49;85.74
36834;BME280;48003;52.084;5.224;2024-01-30T04:18:01;102542.0;;;10.06;87.41
36834;BME280;48003;52.084;5.224;2024-01-30T04:19:37;102541.00000000001;;;10.34;86.3
36834;BME280;48003;52.084;5.224;2024-01-30T04:21:13;102534.99999999999;;;10.32;85.83
36834;BME280;48003;52.084;5.224;2024-01-30T04:24:25;102532.0;;;10.7;84.37
36834;BME280;48003;52.084;5.224;2024-01-30T04:26:01;102532.0;;;10.66;84.07
36834;BME280;48003;52.084;5.224;2024-01-30T04:27:38;102531.0;;;10.19;85.75
36834;BME280;48003;52.084;5.224;2024-01-30T04:30:50;102523.0;;;10.32;85.65
36834;BME280;48003;52.084;5.224;2024-01-30T04:32:26;102524.0;;;10.39;85.66
36834;BME280;48003;52.084;5.224;2024-01-30T04:34:02;102518.0;;;10.02;87.06
36834;BME280;48003;52.084;5.224;2024-01-30T04:35:38;102508.99999999999;;;10.42;85.97
36834;BME280;48003;52.084;5.224;2024-01-30T04:38:50;102503.0;;;10.35;85.99
36834;BME280;48003;52.084;5.224;2024-01-30T04:40:27;102515.00000000001;;;10.37;85.82
36834;BME280;48003;52.084;5.224;2024-01-30T04:42:03;102511.99999999999;;;10.19;86.97
36834;BME280;48003;52.084;5.224;2024-01-30T04:45:16;102517.0;;;10.24;86.57
36834;BME280;48003;52.084;5.224;2024-01-30T04:46:52;102521.0;;;10.25;86.76
36834;BME280;48003;52.084;5.224;2024-01-30T04:48:28;102515.00000000001;;;9.98;87.83
36834;BME280;48003;52.084;5.224;2024-01-30T04:51:41;102522.0;;;10.36;86.84
36834;BME280;48003;52.084;5.224;2024-01-30T04:53:17;102520.0;;;10.55;85.44
36834;BME280;48003;52.084;5.224;2024-01-30T04:54:54;102517.0;;;10.16;86.72
36834;BME280;48003;52.084;5.224;2024-01-30T04:56:30;102516.00000000001;;;10.25;87.4
36834;BME280;48003;52.084;5.224;2024-01-30T04:59:45;102516.00000000001;;;10.06;87.58
36834;BME280;48003;52.084;5.224;2024-01-30T05:01:21;102509.99999999999;;;10.27;86.61
36834;BME280;48003;52.084;5.224;2024-01-30T05:02:57;102508.99999999999;;;10.29;86.96
36834;BME280;48003;52.084;5.224;2024-01-30T05:06:10;102519.0;;;10.62;85.93
36834;BME280;48003;52.084;5.224;2024-01-30T05:07:46;102508.99999999999;;;10.38;86.81
36834;BME280;48003;52.084;5.224;2024-01-30T05:09:22;102516.00000000001;;;10.57;86.25
36834;BME280;48003;52.084;5.224;2024-01-30T05:12:36;102518.0;;;10.29;86.78
36834;BME280;48003;52.084;5.224;2024-01-30T05:14:12;102517.0;;;10.17;88.18
36834;BME280;48003;52.084;5.224;2024-01-30T05:15:48;102507.0;;;10.48;86.87
36834;BME280;48003;52.084;5.224;2024-01-30T05:17:24;102503.0;;;10.61;86.43
36834;BME280;48003;52.084;5.224;2024-01-30T05:20:37;102497.0;;;10.63;85.76
36834;BME280;48003;52.084;5.224;2024-01-30T05:22:13;102498.0;;;10.79;85.04
36834;BME280;48003;52.084;5.224;2024-01-30T05:23:49;102492.0;;;10.96;84.81
36834;BME280;48003;52.084;5.224;2024-01-30T05:27:01;102488.00000000001;;;10.86;84.32
36834;BME280;48003;52.084;5.224;2024-01-30T05:28:37;102484.99999999999;;;10.91;84.61
36834;BME280;48003;52.084;5.224;2024-01-30T05:30:14;102490.00000000001;;;10.86;84.84
36834;BME280;48003;52.084;5.224;2024-01-30T05:33:25;102499.0;;;11.2;83.53
36834;BME280;48003;52.084;5.224;2024-01-30T05:35:02;102499.0;;;11.36;82.64
36834;BME280;48003;52.084;5.224;2024-01-30T05:36:38;102504.0;;;10.89;83.96
36834;BME280;48003;52.084;5.224;2024-01-30T05:39:52;102506.0;;;10.81;85.34
36834;BME280;48003;52.084;5.224;2024-01-30T05:41:28;102500.0;;;10.97;83.86
36834;BME280;48003;52.084;5.224;2024-01-30T05:43:04;102492.0;;;11.22;83.52
36834;BME280;48003;52.084;5.224;2024-01-30T05:44:40;102495.0;;;10.8;85.48
36834;BME280;48003;52.084;5.224;2024-01-30T05:47:53;102498.0;;;10.94;85.16
36834;BME280;48003;52.084;5.224;2024-01-30T05:49:32;102498.0;;;10.82;85.46
36834;BME280;48003;52.084;5.224;2024-01-30T05:51:08;102503.0;;;10.91;85.13
36834;BME280;48003;52.084;5.224;2024-01-30T05:54:20;102506.0;;;10.8;85.25
36834;BME280;48003;52.084;5.224;2024-01-30T05:55:56;102507.0;;;10.54;86.88
36834;BME280;48003;52.084;5.224;2024-01-30T05:57:32;102498.0;;;10.79;86.32
36834;BME280;48003;52.084;5.224;2024-01-30T06:00:45;102504.0;;;10.88;85.47
36834;BME280;48003;52.084;5.224;2024-01-30T06:02:21;102509.99999999999;;;10.7;86.18
36834;BME280;48003;52.084;5.224;2024-01-30T06:03:57;102509.99999999999;;;10.95;85.95
36834;BME280;48003;52.084;5.224;2024-01-30T06:05:33;102504.0;;;10.8;86.09
36834;BME280;48003;52.084;5.224;2024-01-30T06:08:45;102506.0;;;10.83;86.58
36834;BME280;48003;52.084;5.224;2024-01-30T06:10:21;102503.0;;;10.99;85.73
36834;BME280;48003;52.084;5.224;2024-01-30T06:12:00;102494.0;;;11.2;85.13
36834;BME280;48003;52.084;5.224;2024-01-30T06:15:13;102508.0;;;10.9;85.78
36834;BME280;48003;52.084;5.224;2024-01-30T06:16:49;102503.0;;;11.23;85.35
36834;BME280;48003;52.084;5.224;2024-01-30T06:18:25;102497.0;;;11.23;84.44
36834;BME280;48003;52.084;5.224;2024-01-30T06:21:37;102507.0;;;10.89;86.35
36834;BME280;48003;52.084;5.224;2024-01-30T06:23:13;102508.99999999999;;;11.11;85.75
36834;BME280;48003;52.084;5.224;2024-01-30T06:24:49;102508.0;;;10.85;86.92
36834;BME280;48003;52.084;5.224;2024-01-30T06:26:26;102500.0;;;11.09;86.27
36834;BME280;48003;52.084;5.224;2024-01-30T06:29:37;102511.99999999999;;;10.93;86.96
36834;BME280;48003;52.084;5.224;2024-01-30T06:31:14;102511.99999999999;;;10.94;87.04
36834;BME280;48003;52.084;5.224;2024-01-30T06:32:50;102513.00000000001;;;10.93;87.31
36834;BME280;48003;52.084;5.224;2024-01-30T06:36:02;102518.0;;;10.74;88.52
36834;BME280;48003;52.084;5.224;2024-01-30T06:37:38;102520.0;;;10.62;89.3
36834;BME280;48003;52.084;5.224;2024-01-30T06:39:14;102518.0;;;11.03;88.03
36834;BME280;48003;52.084;5.224;2024-01-30T06:42:26;102526.0;;;10.86;88.1
36834;BME280;48003;52.084;5.224;2024-01-30T06:44:02;102532.0;;;10.76;88.91
36834;BME280;48003;52.084;5.224;2024-01-30T06:45:38;102531.0;;;10.47;91.0
36834;BME280;48003;52.084;5.224;2024-01-30T06:48:51;102529.0;;;10.69;90.27
36834;BME280;48003;52.084;5.224;2024-01-30T06:50:27;102521.0;;;10.59;91.16
36834;BME280;48003;52.084;5.224;2024-01-30T06:52:04;102521.0;;;10.65;90.98
36834;BME280;48003;52.084;5.224;2024-01-30T06:53:40;102530.0;;;10.77;90.32
36834;BME280;48003;52.084;5.224;2024-01-30T06:56:53;102525.0;;;10.93;89.73
36834;BME280;48003;52.084;5.224;2024-01-30T06:58:29;102528.0;;;10.95;89.06
36834;BME280;48003;52.084;5.224;2024-01-30T07:00:06;102532.0;;;11.02;88.81
36834;BME280;48003;52.084;5.224;2024-01-30T07:03:19;102526.0;;;10.87;89.17
36834;BME280;48003;52.084;5.224;2024-01-30T07:04:55;102531.0;;;10.85;89.83
36834;BME280;48003;52.084;5.224;2024-01-30T07:06:31;102521.0;;;10.92;89.72
36834;BME280;48003;52.084;5.224;2024-01-30T07:09:43;102527.0;;;10.96;89.76
36834;BME280;48003;52.084;5.224;2024-01-30T07:11:19;102527.0;;;10.96;89.71
36834;BME280;48003;52.084;5.224;2024-01-30T07:12:55;102527.0;;;10.96;90.0
36834;BME280;48003;52.084;5.224;2024-01-30T07:14:31;102530.0;;;10.79;91.05
36834;BME280;48003;52.084;5.224;2024-01-30T07:17:44;102525.0;;;10.87;90.67
36834;BME280;48003;52.084;5.224;2024-01-30T07:19:20;102530.0;;;10.91;90.76
36834;BME280;48003;52.084;5.224;2024-01-30T07:20:56;102527.0;;;10.88;90.97
36834;BME280;48003;52.084;5.224;2024-01-30T07:24:09;102533.0;;;10.84;91.42
36834;BME280;48003;52.084;5.224;2024-01-30T07:25:45;102540.00000000001;;;10.85;91.29
36834;BME280;48003;52.084;5.224;2024-01-30T07:27:21;102532.0;;;10.93;91.28
36834;BME280;48003;52.084;5.224;2024-01-30T07:30:33;102538.00000000001;;;10.83;91.72
36834;BME280;48003;52.084;5.224;2024-01-30T07:32:10;102542.0;;;10.73;92.72
36834;BME280;48003;52.084;5.224;2024-01-30T07:33:46;102544.0;;;11.05;91.3
36834;BME280;48003;52.084;5.224;2024-01-30T07:36:58;102549.0;;;10.86;91.46
36834;BME280;48003;52.084;5.224;2024-01-30T07:38:34;102557.0;;;11.08;91.52
36834;BME280;48003;52.084;5.224;2024-01-30T07:40:10;102556.0;;;10.86;91.82
36834;BME280;48003;52.084;5.224;2024-01-30T07:41:46;102563.00000000001;;;11.34;90.17
36834;BME280;48003;52.084;5.224;2024-01-30T07:44:59;102565.00000000001;;;11.2;90.91
36834;BME280;48003;52.084;5.224;2024-01-30T07:46:34;102568.0;;;11.38;89.96
36834;BME280;48003;52.084;5.224;2024-01-30T07:48:11;102565.00000000001;;;11.83;87.34
36834;BME280;48003;52.084;5.224;2024-01-30T07:51:23;102566.00000000001;;;11.55;88.0
36834;BME280;48003;52.084;5.224;2024-01-30T07:53:00;102567.0;;;11.36;89.73
36834;BME280;48003;52.084;5.224;2024-01-30T07:54:50;102566.00000000001;;;11.53;89.12
36834;BME280;48003;52.084;5.224;2024-01-30T07:56:26;102565.00000000001;;;11.77;87.82
36834;BME280;48003;52.084;5.224;2024-01-30T07:59:38;102574.0;;;11.33;89.69
36834;BME280;48003;52.084;5.224;2024-01-30T08:01:15;102570.0;;;11.19;90.73
36834;BME280;48003;52.084;5.224;2024-01-30T08:02:53;102572.0;;;11.26;90.71
36834;BME280;48003;52.084;5.224;2024-01-30T08:06:05;102574.0;;;11.25;90.67
36834;BME280;48003;52.084;5.224;2024-01-30T08:07:42;102574.0;;;11.23;90.84
36834;BME280;48003;52.084;5.224;2024-01-30T08:09:18;102579.0;;;11.55;90.11
36834;BME280;48003;52.084;5.224;2024-01-30T08:12:30;102567.0;;;11.14;91.46
36834;BME280;48003;52.084;5.224;2024-01-30T08:14:06;102567.0;;;11.4;90.77
36834;BME280;48003;52.084;5.224;2024-01-30T08:15:43;102567.0;;;11.24;91.81
36834;BME280;48003;52.084;5.224;2024-01-30T08:17:19;102569.0;;;11.34;91.88
36834;BME280;48003;52.084;5.224;2024-01-30T08:20:31;102576.0;;;11.45;90.99
36834;BME280;48003;52.084;5.224;2024-01-30T08:22:07;102569.0;;;11.84;89.46
36834;BME280;48003;52.084;5.224;2024-01-30T08:23:43;102571.0;;;11.75;89.52
36834;BME280;48003;52.084;5.224;2024-01-30T08:26:55;102571.0;;;12.1;88.33
36834;BME280;48003;52.084;5.224;2024-01-30T08:28:31;102573.0;;;12.27;87.2
36834;BME280;48003;52.084;5.224;2024-01-30T08:30:08;102570.0;;;12.08;87.64
36834;BME280;48003;52.084;5.224;2024-01-30T08:33:21;102575.0;;;12.1;87.93
36834;BME280;48003;52.084;5.224;2024-01-30T08:34:57;102567.0;;;12.17;88.41
36834;BME280;48003;52.084;5.224;2024-01-30T08:36:33;102567.0;;;12.1;88.37
36834;BME280;48003;52.084;5.224;2024-01-30T08:39:45;102566.00000000001;;;11.93;89.48
36834;BME280;48003;52.084;5.224;2024-01-30T08:41:21;102566.00000000001;;;12.31;88.25
36834;BME280;48003;52.084;5.224;2024-01-30T08:42:57;102572.0;;;12.14;88.9
36834;BME280;48003;52.084;5.224;2024-01-30T08:44:33;102565.00000000001;;;12.54;87.13
36834;BME280;48003;52.084;5.224;2024-01-30T08:47:46;102573.0;;;11.96;89.94
36834;BME280;48003;52.084;5.224;2024-01-30T08:49:22;102567.0;;;12.36;88.43
36834;BME280;48003;52.084;5.224;2024-01-30T08:50:58;102575.0;;;12.58;87.76
36834;BME280;48003;52.084;5.224;2024-01-30T08:54:10;102578.0;;;12.79;86.53
36834;BME280;48003;52.084;5.224;2024-01-30T08:55:46;102576.0;;;12.79;86.22
36834;BME280;48003;52.084;5.224;2024-01-30T08:57:22;102581.0;;;12.92;85.77
36834;BME280;48003;52.084;5.224;2024-01-30T09:00:34;102586.99999999999;;;12.67;87.53
36834;BME280;48003;52.084;5.224;2024-01-30T09:02:09;102582.0;;;12.77;86.47
36834;BME280;48003;52.084;5.224;2024-01-30T09:03:46;102586.99999999999;;;12.13;89.63
36834;BME280;48003;52.084;5.224;2024-01-30T09:06:58;102592.0;;;12.51;88.48
36834;BME280;48003;52.084;5.224;2024-01-30T09:08:34;102582.0;;;12.73;86.76
36834;BME280;48003;52.084;5.224;2024-01-30T09:10:10;102581.0;;;12.74;87.34
36834;BME280;48003;52.084;5.224;2024-01-30T09:11:46;102583.99999999999;;;12.72;87.5
36834;BME280;48003;52.084;5.224;2024-01-30T09:14:58;102592.0;;;12.56;88.09
36834;BME280;48003;52.084;5.224;2024-01-30T09:16:35;102583.99999999999;;;13.07;85.46
36834;BME280;48003;52.084;5.224;2024-01-30T09:18:11;102591.00000000001;;;12.74;87.18
36834;BME280;48003;52.084;5.224;2024-01-30T09:21:23;102593.0;;;12.62;87.14
36834;BME280;48003;52.084;5.224;2024-01-30T09:23:04;102594.0;;;12.92;86.25
36834;BME280;48003;52.084;5.224;2024-01-30T09:24:40;102600.0;;;12.61;86.8
36834;BME280;48003;52.084;5.224;2024-01-30T09:27:52;102601.0;;;12.79;86.73
36834;BME280;48003;52.084;5.224;2024-01-30T09:29:28;102593.0;;;13.1;85.51
36834;BME280;48003;52.084;5.224;2024-01-30T09:31:09;102595.0;;;12.99;85.49
36834;BME280;48003;52.084;5.224;2024-01-30T09:32:45;102596.0;;;12.93;85.26
36834;BME280;48003;52.084;5.224;2024-01-30T09:35:58;102609.99999999999;;;12.9;85.9
36834;BME280;48003;52.084;5.224;2024-01-30T09:37:34;102599.0;;;12.72;87.11
36834;BME280;48003;52.084;5.224;2024-01-30T09:39:10;102594.0;;;13.2;84.77
36834;BME280;48003;52.084;5.224;2024-01-30T09:42:34;102601.0;;;13.1;85.08
36834;BME280;48003;52.084;5.224;2024-01-30T09:44:11;102600.0;;;13.07;85.08
36834;BME280;48003;52.084;5.224;2024-01-30T09:45:48;102606.0;;;12.95;85.28
36834;BME280;48003;52.084;5.224;2024-01-30T09:47:26;102608.99999999999;;;13.11;85.31
36834;BME280;48003;52.084;5.224;2024-01-30T09:50:40;102617.0;;;13.09;85.15
36834;BME280;48003;52.084;5.224;2024-01-30T09:52:17;102619.0;;;13.1;85.52
36834;BME280;48003;52.084;5.224;2024-01-30T09:53:54;102618.0;;;13.06;85.48
36834;BME280;48003;52.084;5.224;2024-01-30T09:57:06;102621.0;;;13.24;84.9
36834;BME280;48003;52.084;5.224;2024-01-30T09:58:42;102621.0;;;13.08;84.88
36834;BME280;48003;52.084;5.224;2024-01-30T10:00:18;102622.0;;;12.97;86.49
36834;BME280;48003;52.084;5.224;2024-01-30T10:01:55;102618.0;;;12.9;86.59
36834;BME280;48003;52.084;5.224;2024-01-30T10:05:08;102630.0;;;12.83;86.89
36834;BME280;48003;52.084;5.224;2024-01-30T10:06:44;102628.0;;;12.86;86.76
36834;BME280;48003;52.084;5.224;2024-01-30T10:08:20;102621.0;;;13.08;86.37
36834;BME280;48003;52.084;5.224;2024-01-30T10:11:32;102622.0;;;12.75;87.56
36834;BME280;48003;52.084;5.224;2024-01-30T10:13:08;102618.0;;;13.07;86.59
36834;BME280;48003;52.084;5.224;2024-01-30T10:14:44;102611.99999999999;;;13.16;86.06
36834;BME280;48003;52.084;5.224;2024-01-30T10:17:57;102625.0;;;12.98;86.86
36834;BME280;48003;52.084;5.224;2024-01-30T10:19:37;102623.0;;;13.34;85.38
36834;BME280;48003;52.084;5.224;2024-01-30T10:21:13;102620.0;;;13.27;85.23
36834;BME280;48003;52.084;5.224;2024-01-30T10:22:49;102622.0;;;13.39;84.83
36834;BME280;48003;52.084;5.224;2024-01-30T10:26:02;102615.00000000001;;;13.44;84.69
36834;BME280;48003;52.084;5.224;2024-01-30T10:27:39;102608.0;;;13.25;85.26
36834;BME280;48003;52.084;5.224;2024-01-30T10:29:16;102603.0;;;13.38;84.97
36834;BME280;48003;52.084;5.224;2024-01-30T10:32:34;102609.99999999999;;;13.28;85.34
36834;BME280;48003;52.084;5.224;2024-01-30T10:34:11;102617.0;;;13.37;84.84
36834;BME280;48003;52.084;5.224;2024-01-30T10:35:48;102625.0;;;13.51;84.27
36834;BME280;48003;52.084;5.224;2024-01-30T10:39:02;102617.0;;;13.32;84.52
36834;BME280;48003;52.084;5.224;2024-01-30T10:40:39;102615.00000000001;;;13.38;84.64
36834;BME280;48003;52.084;5.224;2024-01-30T10:42:18;102620.0;;;13.24;84.92
36834;BME280;48003;52.084;5.224;2024-01-30T10:43:59;102627.0;;;13.42;84.42
36834;BME280;48003;52.084;5.224;2024-01-30T10:47:22;102632.0;;;13.3;84.2